Time;durP1;ratioP1;P1;durP2;ratioP2;P2;SDS_P1;SDS_P2;PMS_P1;PMS_P2;Temp;Humidity;BMP_temperature;BMP_pressure;BME280_temperature;BME280_humidity;BME280_pressure;Samples;Min_cycle;Max_cycle;Signal;HPM_P1;HPM_P2
2022/11/25 00:01:25;;;;;;;30.52;4.38;;;;;;;8.57;100.00;100740.78;5015212;28;20029;-68
2022/11/25 00:03:53;;;;;;;26.17;4.10;;;;;;;8.55;100.00;100749.47;5012373;28;20037;-68
2022/11/25 00:06:26;;;;;;;34.20;4.40;;;;;;;8.57;100.00;100750.38;5016077;28;20034;-68
2022/11/25 00:08:57;;;;;;;24.50;4.20;;;;;;;8.57;100.00;100755.63;5016096;28;20382;-67
2022/11/25 00:11:23;;;;;;;21.85;4.57;;;;;;;8.56;100.00;100745.97;5018028;28;20026;-68
2022/11/25 00:13:49;;;;;;;21.77;4.53;;;;;;;8.58;100.00;100753.03;5013858;28;20025;-68
2022/11/25 00:16:19;;;;;;;32.45;5.43;;;;;;;8.59;100.00;100749.56;5027045;28;20090;-67
2022/11/25 00:18:47;;;;;;;27.42;4.40;;;;;;;8.58;100.00;100745.16;5017890;28;20374;-69
2022/11/25 00:21:14;;;;;;;24.33;4.78;;;;;;;8.61;100.00;100746.97;5021517;28;20033;-68
2022/11/25 00:23:40;;;;;;;24.80;3.85;;;;;;;8.63;100.00;100740.03;5022208;28;20041;-67
2022/11/25 00:26:11;;;;;;;27.98;4.80;;;;;;;8.60;100.00;100742.59;5025541;28;20025;-68
2022/11/25 00:28:37;;;;;;;24.55;4.43;;;;;;;8.60;100.00;100743.47;5022182;28;20489;-67
2022/11/25 00:31:07;;;;;;;18.13;4.38;;;;;;;8.58;100.00;100739.91;5014116;28;20026;-68
2022/11/25 00:33:33;;;;;;;25.60;4.32;;;;;;;8.63;100.00;100749.63;5020514;28;20034;-69
2022/11/25 00:36:02;;;;;;;26.10;4.35;;;;;;;8.64;100.00;100751.41;5012709;28;20022;-68
2022/11/25 00:38:28;;;;;;;22.10;3.67;;;;;;;8.64;100.00;100751.41;5016067;28;20128;-69
2022/11/25 00:44:34;;;;;;;24.13;4.38;;;;;;;8.63;100.00;100747.00;5012406;28;20110;-68
2022/11/25 00:46:22;;;;;;;22.73;5.38;;;;;;;8.66;100.00;100755.84;5013534;28;20092;-68
2022/11/25 00:48:48;;;;;;;14.65;3.92;;;;;;;8.67;100.00;100755.00;5012155;28;20022;-68
2022/11/25 00:51:13;;;;;;;24.75;5.38;;;;;;;8.67;100.00;100765.50;5018149;28;20430;-68
2022/11/25 00:53:38;;;;;;;15.23;4.93;;;;;;;8.62;100.00;100759.25;5012158;28;20026;-68
2022/11/25 00:56:13;;;;;;;29.10;5.18;;;;;;;8.63;100.00;100761.03;5011888;28;20032;-67
2022/11/25 00:58:43;;;;;;;19.75;4.70;;;;;;;8.63;100.00;100770.63;5011878;28;20112;-69
2022/11/25 01:01:09;;;;;;;25.25;5.97;;;;;;;8.63;100.00;100768.91;5013699;28;20076;-69
2022/11/25 01:03:36;;;;;;;23.90;4.82;;;;;;;8.65;100.00;100767.19;5015385;28;20072;-70
2022/11/25 01:06:03;;;;;;;19.33;5.13;;;;;;;8.67;100.00;100762.88;5025124;28;20531;-69
2022/11/25 01:08:29;;;;;;;16.38;5.10;;;;;;;8.66;100.00;100766.34;5026152;28;20077;-68
2022/11/25 01:10:59;;;;;;;21.85;5.25;;;;;;;8.69;100.00;100769.03;5019869;28;20041;-67
2022/11/25 01:13:25;;;;;;;20.23;5.80;;;;;;;8.68;100.00;100769.91;5027870;28;20338;-68
2022/11/25 01:15:50;;;;;;;25.08;6.03;;;;;;;8.67;100.00;100773.38;5021741;28;20030;-67
2022/11/25 01:18:16;;;;;;;33.75;6.72;;;;;;;8.66;100.00;100774.19;5033616;28;20029;-68
2022/11/25 01:20:41;;;;;;;17.23;5.97;;;;;;;8.65;100.00;100768.94;5029949;28;20018;-69
2022/11/25 01:23:06;;;;;;;21.85;6.15;;;;;;;8.66;100.00;100773.31;5033570;28;20121;-69
2022/11/25 01:25:35;;;;;;;31.13;6.45;;;;;;;8.65;100.00;100772.41;5021973;28;20421;-67
2022/11/25 01:28:01;;;;;;;22.23;6.07;;;;;;;8.70;100.00;100772.56;5023803;28;20289;-68
2022/11/25 01:30:26;;;;;;;14.50;5.93;;;;;;;8.67;100.00;100768.13;5015097;28;20029;-68
2022/11/25 01:32:51;;;;;;;20.92;5.78;;;;;;;8.69;100.00;100766.41;5032386;28;20026;-68
2022/11/25 01:35:16;;;;;;;22.30;6.00;;;;;;;8.70;100.00;100762.94;5025308;28;20034;-68
2022/11/25 01:37:42;;;;;;;28.10;5.95;;;;;;;8.68;100.00;100759.41;5015660;28;20026;-68
2022/11/25 01:40:08;;;;;;;24.83;6.25;;;;;;;8.69;100.00;100749.78;5014866;28;20076;-69
2022/11/25 01:42:33;;;;;;;21.25;6.20;;;;;;;8.70;100.00;100757.69;5016371;28;20030;-68
2022/11/25 01:45:26;;;;;;;19.05;5.57;;;;;;;8.72;100.00;100756.00;5030375;28;20083;-68
2022/11/25 01:47:58;;;;;;;17.38;5.13;;;;;;;8.73;100.00;100765.63;5026711;28;20030;-68
2022/11/25 01:50:26;;;;;;;18.77;5.57;;;;;;;8.73;100.00;100772.63;5016571;28;20026;-68
2022/11/25 01:52:54;;;;;;;17.25;5.32;;;;;;;8.70;100.00;100768.19;5026486;28;20037;-67
2022/11/25 01:55:29;;;;;;;30.70;5.72;;;;;;;8.74;100.00;100762.16;5019374;28;20055;-68
2022/11/25 01:58:06;;;;;;;18.55;4.90;;;;;;;8.72;100.00;100756.00;5032528;28;20106;-68
2022/11/25 02:00:31;;;;;;;19.67;4.57;;;;;;;8.69;100.00;100755.91;5021843;28;20045;-68
2022/11/25 02:02:57;;;;;;;25.38;5.80;;;;;;;8.74;100.00;100764.78;5014525;28;20040;-68
2022/11/25 02:05:47;;;;;;;21.52;5.00;;;;;;;8.76;100.00;100765.72;5016469;28;20033;-68
2022/11/25 02:08:12;;;;;;;23.15;4.13;;;;;;;8.73;100.00;100776.09;5020584;28;20108;-66
2022/11/25 02:10:38;;;;;;;23.90;4.30;;;;;;;8.75;100.00;100771.78;5029473;28;20127;-68
2022/11/25 02:13:03;;;;;;;23.67;4.07;;;;;;;8.76;100.00;100775.28;5013855;28;20025;-69
2022/11/25 02:15:32;;;;;;;21.40;3.42;;;;;;;8.72;100.00;100768.22;5016027;28;20381;-67
2022/11/25 02:17:57;;;;;;;17.08;3.47;;;;;;;8.68;100.00;100766.38;5015887;28;20038;-68
2022/11/25 02:20:23;;;;;;;21.63;3.65;;;;;;;8.66;100.00;100766.34;5018164;28;20021;-69
2022/11/25 02:23:15;;;;;;;22.02;3.65;;;;;;;8.68;100.00;100775.16;5034104;28;20084;-68
2022/11/25 02:25:42;;;;;;;19.52;3.60;;;;;;;8.67;100.00;100768.13;5027318;28;20477;-68
2022/11/25 02:28:21;;;;;;;13.15;3.05;;;;;;;8.63;100.00;100761.03;5015896;28;20038;-68
2022/11/25 02:30:46;;;;;;;13.20;3.63;;;;;;;8.63;100.00;100766.28;5033249;28;20029;-69
2022/11/25 02:33:13;;;;;;;31.50;3.70;;;;;;;8.68;100.00;100769.91;5015167;28;20022;-69
2022/11/25 02:35:51;;;;;;;10.88;2.88;;;;;;;8.70;100.00;100777.78;5025488;28;20032;-68
2022/11/25 02:38:24;;;;;;;21.20;3.50;;;;;;;8.65;100.00;100776.78;5032545;28;20041;-67
2022/11/25 02:41:02;;;;;;;17.17;3.70;;;;;;;8.66;100.00;100776.81;5017615;28;20099;-68
2022/11/25 02:43:27;;;;;;;18.67;3.05;;;;;;;8.63;100.00;100774.16;5023243;28;20041;-68
2022/11/25 02:46:07;;;;;;;13.68;3.08;;;;;;;8.61;100.00;100778.44;5026792;28;20021;-68
2022/11/25 02:48:35;;;;;;;16.70;3.38;;;;;;;8.58;100.00;100776.63;5016193;28;20029;-67
2022/11/25 02:51:01;;;;;;;19.27;3.35;;;;;;;8.55;100.00;100779.19;5021885;28;20025;-68
2022/11/25 02:53:27;;;;;;;17.02;4.50;;;;;;;8.58;100.00;100788.88;5028674;28;20045;-67
2022/11/25 02:55:52;;;;;;;11.98;3.00;;;;;;;8.52;100.00;100780.84;5022686;28;20025;-69
2022/11/25 02:58:18;;;;;;;18.42;3.08;;;;;;;8.55;100.00;100794.06;5016529;28;20045;-66
2022/11/25 03:00:44;;;;;;;19.83;3.38;;;;;;;8.55;100.00;100794.06;5022833;28;20046;-68
2022/11/25 03:03:10;;;;;;;16.50;2.88;;;;;;;8.51;100.00;100789.59;5032924;28;20108;-68
2022/11/25 03:05:36;;;;;;;16.02;2.85;;;;;;;8.54;100.00;100787.03;5026060;28;20113;-68
2022/11/25 03:08:02;;;;;;;15.23;2.60;;;;;;;8.54;100.00;100794.91;5028333;28;20506;-68
2022/11/25 03:10:28;;;;;;;9.95;2.83;;;;;;;8.55;100.00;100788.81;5026110;28;20120;-69
2022/11/25 03:12:53;;;;;;;11.07;2.58;;;;;;;8.48;100.00;100794.75;5033576;28;20075;-69
2022/11/25 03:15:19;;;;;;;14.77;3.03;;;;;;;8.51;100.00;100800.97;5024020;28;20066;-68
2022/11/25 03:17:44;;;;;;;17.25;2.15;;;;;;;8.50;100.00;100801.78;5020817;28;20025;-67
2022/11/25 03:20:11;;;;;;;12.18;2.92;;;;;;;8.52;100.00;100799.22;5021756;28;20030;-68
2022/11/25 03:22:38;;;;;;;11.05;2.47;;;;;;;8.46;100.00;100802.56;5018601;28;20041;-68
2022/11/25 03:25:04;;;;;;;10.15;1.80;;;;;;;8.39;100.00;100806.75;5022507;28;20036;-68
2022/11/25 03:27:30;;;;;;;5.93;2.20;;;;;;;8.40;100.00;100811.16;5014071;28;20036;-68
2022/11/25 03:29:55;;;;;;;14.27;2.40;;;;;;;8.37;100.00;100808.47;5028549;28;20382;-67
2022/11/25 03:32:20;;;;;;;12.38;1.63;;;;;;;8.35;100.00;100817.13;5017281;28;20032;-68
2022/11/25 03:34:46;;;;;;;12.55;2.35;;;;;;;8.32;100.00;100828.44;5024528;28;20512;-68
2022/11/25 03:37:11;;;;;;;7.97;2.22;;;;;;;8.31;100.00;100826.63;5021440;28;20356;-68
2022/11/25 03:39:36;;;;;;;7.80;2.20;;;;;;;8.33;100.00;100830.22;5017869;28;20112;-67
2022/11/25 03:42:02;;;;;;;9.68;2.20;;;;;;;8.32;100.00;100838.91;5022718;28;20052;-69
2022/11/25 03:44:27;;;;;;;14.50;2.80;;;;;;;8.28;100.00;100853.66;5019486;28;20112;-69
2022/11/25 03:46:52;;;;;;;10.70;2.70;;;;;;;8.26;100.00;100849.22;5018015;28;20029;-68
2022/11/25 03:49:18;;;;;;;8.20;2.47;;;;;;;8.28;100.00;100853.66;5028736;28;20112;-69
2022/11/25 03:51:43;;;;;;;13.30;3.35;;;;;;;8.25;100.00;100850.09;5027201;28;20033;-67
2022/11/25 03:54:09;;;;;;;9.52;2.63;;;;;;;8.22;100.00;100837.78;5030126;28;20036;-67
2022/11/25 03:56:34;;;;;;;12.80;3.00;;;;;;;8.18;100.00;100833.31;5026423;28;20405;-68
2022/11/25 03:58:59;;;;;;;15.30;3.00;;;;;;;8.15;100.00;100840.19;5026802;28;20049;-66
2022/11/25 04:01:25;;;;;;;9.13;2.25;;;;;;;8.13;100.00;100848.03;5016446;28;20029;-69
2022/11/25 04:03:50;;;;;;;11.50;2.55;;;;;;;8.18;100.00;100849.03;5024197;28;20405;-67
2022/11/25 04:06:18;;;;;;;7.45;2.30;;;;;;;8.15;100.00;100853.31;5027306;28;20099;-66
2022/11/25 04:08:44;;;;;;;13.07;2.22;;;;;;;8.09;100.00;100854.91;5014362;28;20490;-69
2022/11/25 04:11:09;;;;;;;8.35;1.95;;;;;;;8.07;100.00;100843.53;5030240;28;20036;-68
2022/11/25 04:13:35;;;;;;;9.35;2.22;;;;;;;8.02;100.00;100850.38;5029678;28;20025;-68
2022/11/25 04:16:00;;;;;;;8.90;2.35;;;;;;;8.03;100.00;100857.38;5023968;28;20543;-68
2022/11/25 04:18:25;;;;;;;5.88;1.90;;;;;;;8.01;100.00;100853.81;5039959;28;20033;-68
2022/11/25 04:20:51;;;;;;;7.78;1.92;;;;;;;8.03;100.00;100854.75;5014130;28;20026;-68
2022/11/25 04:23:16;;;;;;;8.35;1.73;;;;;;;7.98;100.00;100861.59;5024095;28;20025;-68
2022/11/25 04:25:41;;;;;;;9.30;1.63;;;;;;;7.95;100.00;100866.78;5031158;28;20053;-68
2022/11/25 04:28:07;;;;;;;7.00;1.50;;;;;;;7.94;100.00;100859.75;5031406;28;20514;-67
2022/11/25 04:30:33;;;;;;;7.38;1.48;;;;;;;7.97;100.00;100862.44;5030146;28;20120;-68
2022/11/25 04:32:59;;;;;;;10.10;1.63;;;;;;;7.89;100.00;100870.09;5030064;28;20105;-67
2022/11/25 04:35:24;;;;;;;3.50;1.30;;;;;;;7.88;100.00;100883.16;5021891;28;20017;-67
2022/11/25 04:37:49;;;;;;;5.85;1.33;;;;;;;7.85;100.00;100889.19;5025840;28;20025;-68
2022/11/25 04:40:15;;;;;;;11.55;1.27;;;;;;;7.86;100.00;100888.34;5021357;28;20421;-68
2022/11/25 04:42:40;;;;;;;6.40;1.50;;;;;;;7.88;100.00;100893.63;5028996;28;20057;-69
2022/11/25 04:45:08;;;;;;;4.38;1.20;;;;;;;7.87;100.00;100907.59;5024791;28;20026;-68
2022/11/25 04:47:34;;;;;;;4.53;1.35;;;;;;;7.85;100.00;100907.53;5035212;28;20500;-68
2022/11/25 04:49:59;;;;;;;3.45;1.30;;;;;;;7.88;100.00;100914.59;5030871;28;20056;-68
2022/11/25 04:52:25;;;;;;;3.92;1.13;;;;;;;7.84;100.00;100907.47;5020719;28;20044;-69
2022/11/25 04:54:50;;;;;;;7.88;1.15;;;;;;;7.86;100.00;100916.28;5023154;28;20120;-67
2022/11/25 04:57:16;;;;;;;6.13;1.42;;;;;;;7.88;100.00;100910.25;5033119;28;20030;-68
2022/11/25 04:59:42;;;;;;;5.10;1.20;;;;;;;7.81;100.00;100903.03;5029855;28;20045;-68
2022/11/25 05:02:17;;;;;;;2.55;0.95;;;;;;;7.83;100.00;100903.13;5026155;28;20404;-68
2022/11/25 05:04:44;;;;;;;5.68;1.60;;;;;;;7.78;100.00;100929.16;5021863;28;20033;-68
2022/11/25 05:07:10;;;;;;;4.60;1.20;;;;;;;7.76;100.00;100926.50;5029103;28;20629;-68
2022/11/25 05:09:36;;;;;;;3.40;1.25;;;;;;;7.70;100.00;100925.44;5034411;28;20017;-66
2022/11/25 05:12:01;;;;;;;2.72;0.80;;;;;;;7.67;100.00;100913.13;5033978;28;20025;-67
2022/11/25 05:14:27;;;;;;;4.53;1.23;;;;;;;7.71;100.00;100929.81;5027856;28;20029;-69
2022/11/25 05:16:52;;;;;;;4.80;1.20;;;;;;;7.70;100.00;100931.53;5028475;28;20065;-67
2022/11/25 05:19:17;;;;;;;7.28;1.13;;;;;;;7.64;100.00;100930.47;5031227;28;20034;-68
2022/11/25 05:21:43;;;;;;;5.15;1.33;;;;;;;7.70;100.00;100935.91;5032615;28;20033;-69
2022/11/25 05:24:08;;;;;;;2.47;1.05;;;;;;;7.69;100.00;100945.50;5016281;28;20437;-67
2022/11/25 05:26:34;;;;;;;7.43;1.13;;;;;;;7.65;100.00;100948.88;5027340;28;20030;-69
2022/11/25 05:28:59;;;;;;;1.92;1.10;;;;;;;7.68;100.00;100953.31;5024172;28;20370;-67
2022/11/25 05:31:24;;;;;;;7.20;1.40;;;;;;;7.70;100.00;100949.88;5018772;28;20029;-67
2022/11/25 05:33:50;;;;;;;11.13;1.98;;;;;;;7.72;100.00;100961.31;5016170;28;20030;-68
2022/11/25 05:36:15;;;;;;;4.35;1.45;;;;;;;7.76;100.00;100957.06;5023502;28;20025;-70
2022/11/25 05:38:41;;;;;;;5.07;1.70;;;;;;;7.76;100.00;100960.56;5019223;28;20112;-67
2022/11/25 05:41:07;;;;;;;7.95;1.67;;;;;;;7.76;100.00;100951.81;5015564;28;20097;-68
2022/11/25 05:43:33;;;;;;;6.85;1.90;;;;;;;7.74;100.00;100959.59;5021885;28;20061;-68
2022/11/25 05:45:59;;;;;;;7.90;1.65;;;;;;;7.69;100.00;100950.75;5034078;28;20033;-68
2022/11/25 05:48:24;;;;;;;4.10;1.85;;;;;;;7.67;100.00;100962.88;5031451;28;20029;-68
2022/11/25 05:50:49;;;;;;;5.88;1.77;;;;;;;7.66;100.00;100962.84;5015964;28;20033;-67
2022/11/25 05:53:16;;;;;;;5.50;1.70;;;;;;;7.64;100.00;100960.19;5028673;28;20021;-68
2022/11/25 05:55:42;;;;;;;10.02;1.95;;;;;;;7.62;100.00;100972.31;5034895;28;20359;-66
2022/11/25 05:58:07;;;;;;;4.55;2.05;;;;;;;7.57;100.00;100966.97;5022695;28;20040;-68
2022/11/25 06:00:33;;;;;;;10.05;2.13;;;;;;;7.55;100.00;100967.75;5019815;28;20050;-67
2022/11/25 06:02:59;;;;;;;5.65;2.10;;;;;;;7.54;100.00;100966.88;5015242;28;20025;-67
2022/11/25 06:05:24;;;;;;;9.10;1.85;;;;;;;7.57;100.00;100976.56;5022555;28;20184;-67
2022/11/25 06:07:51;;;;;;;5.45;1.98;;;;;;;7.53;100.00;100977.31;5018758;28;20025;-68
2022/11/25 06:10:17;;;;;;;5.75;2.80;;;;;;;7.53;100.00;100982.53;5033406;28;20029;-68
2022/11/25 06:12:43;;;;;;;4.60;1.90;;;;;;;7.48;100.00;100978.88;5016864;28;20088;-69
2022/11/25 06:15:09;;;;;;;7.28;2.28;;;;;;;7.50;100.00;100979.81;5021969;28;20022;-68
2022/11/25 06:17:34;;;;;;;14.02;2.67;;;;;;;7.46;100.00;100988.41;5020386;28;20036;-67
2022/11/25 06:20:00;;;;;;;4.18;1.65;;;;;;;7.45;100.00;100984.00;5018468;28;20021;-67
2022/11/25 06:22:25;;;;;;;6.35;2.13;;;;;;;7.42;100.00;100980.47;5019566;28;20029;-67
2022/11/25 06:24:50;;;;;;;4.93;2.00;;;;;;;7.41;100.00;100986.53;5029207;28;20083;-69
2022/11/25 06:27:16;;;;;;;7.07;2.33;;;;;;;7.37;100.00;100994.25;5027767;28;20075;-68
2022/11/25 06:29:41;;;;;;;9.35;2.47;;;;;;;7.36;100.00;101006.44;5030026;28;20099;-68
2022/11/25 06:32:06;;;;;;;11.13;2.47;;;;;;;7.31;100.00;101010.66;5030460;28;20104;-68
2022/11/25 06:34:31;;;;;;;7.90;2.05;;;;;;;7.31;100.00;101005.44;5026141;28;20021;-68
2022/11/25 06:36:57;;;;;;;7.43;2.70;;;;;;;7.29;100.00;101014.94;5027329;28;20029;-68
2022/11/25 06:39:22;;;;;;;9.57;2.22;;;;;;;7.23;100.00;101006.88;5024581;28;20018;-67
2022/11/25 06:41:47;;;;;;;7.93;2.33;;;;;;;7.28;100.00;101005.31;5015274;28;20057;-67
2022/11/25 06:44:13;;;;;;;4.90;2.15;;;;;;;7.26;100.00;101012.22;5020907;28;20021;-68
2022/11/25 06:46:38;;;;;;;9.65;2.33;;;;;;;7.23;100.00;101019.97;5023011;28;20022;-70
2022/11/25 06:49:04;;;;;;;8.65;2.38;;;;;;;7.16;100.00;101020.59;5029011;28;20021;-68
2022/11/25 06:51:29;;;;;;;6.10;2.35;;;;;;;7.17;100.00;101027.63;5021120;28;20034;-69
2022/11/25 06:53:55;;;;;;;8.30;2.50;;;;;;;7.15;100.00;101029.28;5023141;28;20029;-68
2022/11/25 06:56:23;;;;;;;11.38;2.70;;;;;;;7.11;100.00;101038.78;5022798;28;20029;-73
2022/11/25 06:58:50;;;;;;;19.42;2.75;;;;;;;7.09;100.00;101051.81;5024859;28;20029;-69
2022/11/25 07:01:21;;;;;;;7.90;2.28;;;;;;;7.04;100.00;101056.00;5019882;28;20077;-70
2022/11/25 07:03:49;;;;;;;4.85;2.33;;;;;;;7.02;100.00;101060.28;5043901;28;20052;-68
2022/11/25 07:06:16;;;;;;;8.57;2.05;;;;;;;6.99;100.00;101064.53;5048252;28;20018;-69
2022/11/25 07:08:42;;;;;;;11.80;3.17;;;;;;;7.01;100.00;101066.38;5023384;28;20033;-70
2022/11/25 07:11:14;;;;;;;8.65;1.88;;;;;;;6.96;100.00;101067.94;5021850;28;20030;-69
2022/11/25 07:13:40;;;;;;;18.85;2.95;;;;;;;6.93;100.00;101052.09;5027602;28;20099;-68
2022/11/25 07:16:06;;;;;;;11.35;2.80;;;;;;;6.91;100.00;101056.41;5025645;28;20017;-69
2022/11/25 07:18:33;;;;;;;6.45;2.70;;;;;;;6.96;100.00;101069.63;5039147;28;20465;-69
2022/11/25 07:21:15;;;;;;;10.80;2.85;;;;;;;6.94;100.00;101074.81;5038726;28;20466;-68
2022/11/25 07:23:41;;;;;;;12.73;2.95;;;;;;;6.96;100.00;101074.88;5038878;28;20035;-68
2022/11/25 07:26:16;;;;;;;11.50;2.47;;;;;;;6.99;100.00;101080.22;5042194;28;20021;-69
2022/11/25 07:28:42;;;;;;;7.60;2.40;;;;;;;6.99;100.00;101081.09;5041302;28;20021;-70
2022/11/25 07:31:14;;;;;;;11.02;2.25;;;;;;;7.02;100.00;101086.44;5043716;28;20024;-69
2022/11/25 07:33:40;;;;;;;7.80;2.10;;;;;;;7.02;100.00;101096.03;5034438;28;20136;-67
2022/11/25 07:36:07;;;;;;;7.60;1.98;;;;;;;7.04;100.00;101100.47;5013359;28;20101;-68
2022/11/25 07:38:34;;;;;;;12.25;1.88;;;;;;;7.05;100.00;101104.88;5013944;28;20034;-69
2022/11/25 07:41:10;;;;;;;17.52;2.72;;;;;;;7.07;100.00;101100.56;5013437;28;20096;-68
2022/11/25 07:43:36;;;;;;;8.65;1.95;;;;;;;7.12;100.00;101118.16;5033043;28;20025;-68
2022/11/25 07:46:16;;;;;;;11.90;1.67;;;;;;;7.16;100.00;101125.28;5027412;28;20493;-69
2022/11/25 07:48:43;;;;;;;6.15;1.58;;;;;;;7.20;100.00;101128.09;5013488;28;20029;-68
2022/11/25 07:51:16;;;;;;;9.02;2.08;;;;;;;7.23;100.00;101129.88;5016101;28;20017;-68
2022/11/25 07:53:42;;;;;;;8.07;2.20;;;;;;;7.31;100.00;101138.00;5023436;28;20029;-69
2022/11/25 07:56:07;;;;;;;9.73;1.40;;;;;;;7.33;100.00;101136.34;5028443;28;20555;-70
2022/11/25 07:58:33;;;;;;;9.75;1.58;;;;;;;7.35;100.00;101146.03;5033097;28;20052;-68
2022/11/25 08:01:02;;;;;;;5.25;1.50;;;;;;;7.39;100.00;101153.16;5033656;28;20025;-69
2022/11/25 08:03:27;;;;;;;7.07;1.60;;;;;;;7.41;100.00;101153.22;5039775;28;20380;-73
2022/11/25 08:05:53;;;;;;;11.35;1.52;;;;;;;7.42;100.00;101153.25;5041579;28;20025;-69
2022/11/25 08:08:18;;;;;;;7.20;1.63;;;;;;;7.43;100.00;101162.00;5043134;28;20038;-69
2022/11/25 08:10:43;;;;;;;5.50;1.40;;;;;;;7.49;100.00;101161.31;5028254;28;20178;-69
2022/11/25 08:13:09;;;;;;;9.23;1.30;;;;;;;7.55;100.00;101169.38;5032096;28;20024;-69
2022/11/25 08:15:34;;;;;;;6.03;1.25;;;;;;;7.56;100.00;101177.28;5040572;28;20028;-68
2022/11/25 08:17:59;;;;;;;8.98;1.45;;;;;;;7.62;100.00;101174.00;5035182;28;20468;-70
2022/11/25 08:20:25;;;;;;;7.90;1.73;;;;;;;7.63;100.00;101178.41;5030074;28;20378;-69
2022/11/25 08:22:50;;;;;;;7.47;1.63;;;;;;;7.64;100.00;101182.81;5031546;28;20021;-69
2022/11/25 08:25:16;;;;;;;5.22;1.70;;;;;;;7.67;100.00;101187.25;5045665;28;20029;-69
2022/11/25 08:27:41;;;;;;;4.85;1.52;;;;;;;7.70;100.00;101183.00;5035781;28;20033;-70
2022/11/25 08:30:07;;;;;;;7.28;1.55;;;;;;;7.74;100.00;101182.25;5037937;28;20033;-70
2022/11/25 08:32:37;;;;;;;7.43;1.80;;;;;;;7.82;100.00;101176.41;5034127;28;20108;-69
2022/11/25 08:35:03;;;;;;;10.55;1.42;;;;;;;7.89;100.00;101181.00;5014224;28;20088;-70
2022/11/25 08:37:30;;;;;;;10.20;1.40;;;;;;;7.94;100.00;101184.66;5027770;28;20028;-70
2022/11/25 08:39:55;;;;;;;7.70;1.75;;;;;;;8.00;100.00;101192.72;5045348;28;20033;-68
2022/11/25 08:42:21;;;;;;;5.03;1.58;;;;;;;8.07;100.00;101193.81;5018547;28;20034;-68
2022/11/25 08:44:54;;;;;;;14.50;1.63;;;;;;;8.14;100.00;101194.88;5048901;28;20413;-69
2022/11/25 08:47:19;;;;;;;9.57;1.80;;;;;;;8.20;100.00;101195.09;5030395;28;20090;-69
2022/11/25 08:49:45;;;;;;;5.65;1.58;;;;;;;8.22;100.00;101202.19;5022394;28;20037;-69
2022/11/25 08:52:10;;;;;;;10.15;1.63;;;;;;;8.27;100.00;101208.47;5019886;28;20433;-68
2022/11/25 08:54:35;;;;;;;8.73;1.70;;;;;;;8.28;100.00;101214.59;5017811;28;20030;-68
2022/11/25 08:57:01;;;;;;;7.70;1.80;;;;;;;8.32;100.00;101220.81;5027047;28;20021;-69
2022/11/25 08:59:26;;;;;;;17.02;2.47;;;;;;;8.37;100.00;101230.63;5027355;28;20058;-69
2022/11/25 09:01:51;;;;;;;10.20;1.67;;;;;;;8.43;100.00;101240.41;5024831;28;20025;-70
2022/11/25 09:04:17;;;;;;;12.32;1.38;;;;;;;8.48;100.00;101236.22;5034971;28;20100;-69
2022/11/25 09:06:42;;;;;;;5.93;1.50;;;;;;;8.55;100.00;101245.19;5048683;28;20070;-69
2022/11/25 09:09:07;;;;;;;6.85;1.58;;;;;;;8.64;100.00;101245.47;5030304;28;20583;-69
2022/11/25 09:11:34;;;;;;;10.50;2.00;;;;;;;8.70;100.00;101243.03;5037103;28;20157;-69
2022/11/25 09:13:59;;;;;;;9.82;1.40;;;;;;;8.78;100.00;101244.16;5037966;28;20164;-69
2022/11/25 09:16:24;;;;;;;10.65;2.42;;;;;;;8.90;100.00;101243.63;5020139;28;20017;-68
2022/11/25 09:18:50;;;;;;;3.83;1.85;;;;;;;8.99;100.00;101250.88;5039702;28;20022;-69
2022/11/25 09:21:17;;;;;;;11.85;1.80;;;;;;;9.07;100.00;101251.09;5037214;28;20106;-69
2022/11/25 09:23:42;;;;;;;10.52;1.33;;;;;;;9.27;100.00;101257.81;5040391;28;20037;-69
2022/11/25 09:26:18;;;;;;;12.07;2.08;;;;;;;9.48;100.00;101263.63;5023173;28;20030;-68
2022/11/25 09:28:43;;;;;;;7.15;1.58;;;;;;;9.71;100.00;101274.78;5034086;28;20025;-67
2022/11/25 09:31:08;;;;;;;11.93;1.60;;;;;;;9.87;100.00;101263.81;5032106;28;20495;-69
2022/11/25 09:33:34;;;;;;;7.45;1.20;;;;;;;9.95;100.00;101271.91;5032582;28;20040;-69
2022/11/25 09:36:00;;;;;;;8.60;1.55;;;;;;;10.04;100.00;101285.31;5042698;28;20025;-68
2022/11/25 09:38:26;;;;;;;10.18;1.35;;;;;;;10.09;100.00;101286.31;5026667;28;20026;-68
2022/11/25 09:41:02;;;;;;;10.95;1.45;;;;;;;10.20;100.00;101288.31;5024359;28;20025;-68
2022/11/25 09:46:51;;;;;;;7.80;1.60;;;;;;;10.72;100.00;101294.88;5035875;28;20589;-71
2022/11/25 09:49:38;;;;;;;9.48;1.98;;;;;;;10.94;100.00;101298.00;5017848;28;20018;-70
2022/11/25 09:52:32;;;;;;;8.07;1.45;;;;;;;11.11;100.00;101299.25;5040353;28;20030;-69
2022/11/25 09:55:18;;;;;;;14.68;1.70;;;;;;;11.40;100.00;101298.09;5037574;28;20037;-69
2022/11/25 09:57:55;;;;;;;10.02;1.58;;;;;;;11.71;100.00;101307.50;5042987;28;20060;-69
2022/11/25 10:00:21;;;;;;;7.82;1.60;;;;;;;11.69;100.00;101314.47;5037694;28;20057;-69
2022/11/25 10:03:18;;;;;;;9.00;1.70;;;;;;;11.75;100.00;101314.59;5037594;28;20043;-70
2022/11/25 10:05:52;;;;;;;7.65;1.80;;;;;;;11.92;100.00;101317.59;5039981;28;20025;-69
2022/11/25 10:08:22;;;;;;;13.25;1.88;;;;;;;12.01;100.00;101327.44;5050625;28;20029;-69
2022/11/25 10:10:54;;;;;;;10.35;1.60;;;;;;;11.89;100.00;101327.16;5048754;28;20029;-69
2022/11/25 10:13:28;;;;;;;15.82;2.20;;;;;;;12.14;100.00;101334.72;5036470;28;20064;-69
2022/11/25 10:15:58;;;;;;;8.80;1.55;;;;;;;12.14;100.00;101328.56;5043889;28;20500;-69
2022/11/25 10:18:36;;;;;;;8.82;1.67;;;;;;;12.35;100.00;101330.66;5036951;28;20033;-69
2022/11/25 10:21:03;;;;;;;16.08;2.28;;;;;;;12.71;100.00;101334.78;5023871;28;20040;-68
2022/11/25 10:23:34;;;;;;;8.10;1.80;;;;;;;13.00;100.00;101344.88;5044414;28;20067;-70
2022/11/25 10:26:12;;;;;;;8.13;1.50;;;;;;;13.38;100.00;101352.50;5041991;28;20029;-68
2022/11/25 10:28:45;;;;;;;11.32;2.35;;;;;;;13.05;100.00;101352.88;5050338;28;20029;-69
2022/11/25 10:31:27;;;;;;;9.27;1.80;;;;;;;13.06;100.00;101350.28;5036977;28;20445;-68
2022/11/25 10:33:57;;;;;;;9.20;2.03;;;;;;;13.16;100.00;101346.88;5042139;28;20034;-69
2022/11/25 10:36:25;;;;;;;11.68;2.65;;;;;;;13.39;100.00;101359.56;5048889;28;20028;-68
2022/11/25 10:39:06;;;;;;;12.80;2.20;;;;;;;13.48;100.00;101367.63;5027648;28;20030;-69
2022/11/25 10:41:43;;;;;;;8.93;1.88;;;;;;;13.62;100.00;101375.72;5026154;28;20435;-69
2022/11/25 10:44:23;;;;;;;12.75;1.92;;;;;;;13.68;100.00;101382.84;5040463;28;20044;-68
2022/11/25 10:47:19;;;;;;;11.27;2.58;;;;;;;13.20;100.00;101384.81;5037060;28;20029;-69
2022/11/25 10:50:00;;;;;;;12.52;1.73;;;;;;;12.64;100.00;101381.31;5043540;28;20029;-69
2022/11/25 10:52:28;;;;;;;17.95;3.22;;;;;;;12.85;100.00;101394.84;5017262;28;20026;-68
2022/11/25 10:55:16;;;;;;;8.75;1.80;;;;;;;13.13;100.00;101394.41;5030860;28;20492;-69
2022/11/25 10:57:42;;;;;;;13.07;2.45;;;;;;;13.31;100.00;101403.47;5041751;28;20086;-68
2022/11/25 11:00:33;;;;;;;11.02;1.90;;;;;;;13.67;100.00;101407.50;5039996;28;20132;-68
2022/11/25 11:03:24;;;;;;;20.05;2.72;;;;;;;14.01;100.00;101405.25;5028017;28;20026;-68
2022/11/25 11:05:51;;;;;;;7.93;1.77;;;;;;;14.15;100.00;101411.59;5033633;28;20033;-69
2022/11/25 11:08:20;;;;;;;15.85;2.00;;;;;;;14.30;100.00;101424.13;5040233;28;20129;-67
2022/11/25 11:11:06;;;;;;;13.57;2.50;;;;;;;14.13;100.00;101423.94;5049354;28;20037;-69
2022/11/25 11:13:32;;;;;;;11.10;2.50;;;;;;;13.39;100.00;101422.09;5031467;28;20079;-69
2022/11/25 11:15:58;;;;;;;15.73;2.70;;;;;;;13.01;100.00;101430.31;5036527;28;20504;-70
2022/11/25 11:18:28;;;;;;;18.08;3.25;;;;;;;12.41;100.00;101432.81;5038394;28;20489;-68
2022/11/25 11:20:57;;;;;;;15.80;3.25;;;;;;;12.34;100.00;101430.94;5045679;28;20025;-68
2022/11/25 11:23:24;;;;;;;21.35;2.97;;;;;;;12.52;100.00;101435.66;5045735;28;20048;-69
2022/11/25 11:26:01;;;;;;;22.23;2.58;;;;;;;12.32;100.00;101446.72;5014545;28;20032;-68
2022/11/25 11:28:32;;;;;;;14.95;2.85;;;;;;;12.27;100.00;101451.03;5029490;28;20029;-68
2022/11/25 11:31:02;;;;;;;13.52;3.17;;;;;;;12.06;100.00;101456.75;5042045;28;20025;-68